sensor_id;sensor_type;location;lat;lon;timestamp;pressure;altitude;pressure_sealevel;temperature;humidity
40596;BME280;26304;48.794;9.820;2023-03-23T00:02:02;95810.00;;;18.81;43.75
40596;BME280;26304;48.794;9.820;2023-03-23T00:07:45;95807.75;;;18.80;43.89
40596;BME280;26304;48.794;9.820;2023-03-23T00:13:33;95803.63;;;18.79;43.84
40596;BME280;26304;48.794;9.820;2023-03-23T00:19:17;95798.38;;;18.75;44.23
40596;BME280;26304;48.794;9.820;2023-03-23T00:25:01;95806.31;;;18.68;44.23
40596;BME280;26304;48.794;9.820;2023-03-23T00:30:44;95802.91;;;18.71;43.79
40596;BME280;26304;48.794;9.820;2023-03-23T00:36:28;95778.88;;;18.65;44.42
40596;BME280;26304;48.794;9.820;2023-03-23T00:42:10;95769.81;;;18.66;44.34
40596;BME280;26304;48.794;9.820;2023-03-23T00:47:53;95767.59;;;18.65;44.30
40596;BME280;26304;48.794;9.820;2023-03-23T00:53:39;95769.84;;;18.63;44.14
40596;BME280;26304;48.794;9.820;2023-03-23T00:59:22;95772.88;;;18.61;44.36
40596;BME280;26304;48.794;9.820;2023-03-23T01:05:05;95764.63;;;18.59;44.38
40596;BME280;26304;48.794;9.820;2023-03-23T01:10:50;95756.34;;;18.61;44.53
40596;BME280;26304;48.794;9.820;2023-03-23T01:16:32;95754.09;;;18.59;44.27
40596;BME280;26304;48.794;9.820;2023-03-23T01:22:14;95745.81;;;18.61;44.39
40596;BME280;26304;48.794;9.820;2023-03-23T01:27:58;95735.31;;;18.57;44.55
40596;BME280;26304;48.794;9.820;2023-03-23T01:33:42;95731.53;;;18.58;44.76
40596;BME280;26304;48.794;9.820;2023-03-23T01:39:24;95730.41;;;18.59;44.49
40596;BME280;26304;48.794;9.820;2023-03-23T01:45:27;95713.09;;;18.58;44.62
40596;BME280;26304;48.794;9.820;2023-03-23T01:51:12;95710.47;;;18.58;44.76
40596;BME280;26304;48.794;9.820;2023-03-23T01:57:00;95714.25;;;18.57;44.46
40596;BME280;26304;48.794;9.820;2023-03-23T02:02:48;95708.97;;;18.57;44.45
40596;BME280;26304;48.794;9.820;2023-03-23T02:08:32;95709.72;;;18.58;44.68
40596;BME280;26304;48.794;9.820;2023-03-23T02:14:16;95687.94;;;18.54;44.48
40596;BME280;26304;48.794;9.820;2023-03-23T02:20:10;95692.81;;;18.55;44.19
40596;BME280;26304;48.794;9.820;2023-03-23T02:26:03;95693.56;;;18.56;44.47
40596;BME280;26304;48.794;9.820;2023-03-23T02:32:16;95683.78;;;18.56;44.30
40596;BME280;26304;48.794;9.820;2023-03-23T02:38:08;95687.50;;;18.59;44.61
40596;BME280;26304;48.794;9.820;2023-03-23T02:43:52;95681.16;;;18.56;44.74
40596;BME280;26304;48.794;9.820;2023-03-23T02:49:37;95681.16;;;18.56;44.79
40596;BME280;26304;48.794;9.820;2023-03-23T02:55:22;95684.53;;;18.57;44.57
40596;BME280;26304;48.794;9.820;2023-03-23T03:07:35;95656.34;;;18.54;44.70
40596;BME280;26304;48.794;9.820;2023-03-23T03:13:28;95643.56;;;18.52;44.33
40596;BME280;26304;48.794;9.820;2023-03-23T03:19:16;95640.56;;;18.54;44.98
40596;BME280;26304;48.794;9.820;2023-03-23T03:25:01;95644.34;;;18.52;44.86
40596;BME280;26304;48.794;9.820;2023-03-23T03:30:45;95640.19;;;18.51;44.87
40596;BME280;26304;48.794;9.820;2023-03-23T03:36:33;95643.56;;;18.52;44.81
40596;BME280;26304;48.794;9.820;2023-03-23T03:42:16;95638.31;;;18.52;44.86
40596;BME280;26304;48.794;9.820;2023-03-23T03:48:00;95627.03;;;18.51;44.91
40596;BME280;26304;48.794;9.820;2023-03-23T03:53:42;95633.06;;;18.48;45.00
40596;BME280;26304;48.794;9.820;2023-03-23T03:59:25;95636.84;;;18.47;45.00
40596;BME280;26304;48.794;9.820;2023-03-23T04:05:09;95637.59;;;18.48;45.04
40596;BME280;26304;48.794;9.820;2023-03-23T04:10:52;95636.44;;;18.49;44.91
40596;BME280;26304;48.794;9.820;2023-03-23T04:16:34;95627.81;;;18.48;44.81
40596;BME280;26304;48.794;9.820;2023-03-23T04:22:18;95625.50;;;18.58;44.50
40596;BME280;26304;48.794;9.820;2023-03-23T04:28:00;95628.50;;;18.56;44.40
40596;BME280;26304;48.794;9.820;2023-03-23T04:33:43;95623.25;;;18.56;45.06
40596;BME280;26304;48.794;9.820;2023-03-23T04:39:29;95626.09;;;18.76;44.19
40596;BME280;26304;48.794;9.820;2023-03-23T04:45:16;95630.63;;;18.76;44.55
40596;BME280;26304;48.794;9.820;2023-03-23T04:51:02;95627.25;;;18.75;45.14
40596;BME280;26304;48.794;9.820;2023-03-23T04:56:46;95631.69;;;18.82;45.14
40596;BME280;26304;48.794;9.820;2023-03-23T05:02:29;95630.56;;;18.83;45.23
40596;BME280;26304;48.794;9.820;2023-03-23T05:08:11;95629.06;;;18.82;45.92
40596;BME280;26304;48.794;9.820;2023-03-23T05:13:55;95636.13;;;18.92;45.57
40596;BME280;26304;48.794;9.820;2023-03-23T05:19:38;95635.69;;;19.01;45.82
40596;BME280;26304;48.794;9.820;2023-03-23T05:25:22;95619.59;;;18.92;46.20
40596;BME280;26304;48.794;9.820;2023-03-23T05:31:06;95628.91;;;19.03;46.25
40596;BME280;26304;48.794;9.820;2023-03-23T05:36:49;95620.19;;;19.10;46.04
40596;BME280;26304;48.794;9.820;2023-03-23T05:42:34;95625.84;;;19.05;46.53
40596;BME280;26304;48.794;9.820;2023-03-23T05:48:19;95620.59;;;19.05;46.37
40596;BME280;26304;48.794;9.820;2023-03-23T05:54:01;95637.50;;;19.08;46.13
40596;BME280;26304;48.794;9.820;2023-03-23T05:59:44;95629.69;;;19.00;46.43
40596;BME280;26304;48.794;9.820;2023-03-23T06:05:28;95628.91;;;19.00;46.56
40596;BME280;26304;48.794;9.820;2023-03-23T06:11:11;95629.00;;;18.93;46.06
40596;BME280;26304;48.794;9.820;2023-03-23T06:16:54;95636.13;;;18.92;46.68
40596;BME280;26304;48.794;9.820;2023-03-23T06:22:38;95634.19;;;19.00;46.68
40596;BME280;26304;48.794;9.820;2023-03-23T06:28:22;95645.84;;;19.02;47.25
40596;BME280;26304;48.794;9.820;2023-03-23T06:34:05;95651.06;;;19.06;47.11
40596;BME280;26304;48.794;9.820;2023-03-23T06:39:49;95649.28;;;18.96;47.38
40596;BME280;26304;48.794;9.820;2023-03-23T06:45:32;95654.19;;;18.94;46.87
40596;BME280;26304;48.794;9.820;2023-03-23T06:51:15;95653.13;;;18.87;46.99
40596;BME280;26304;48.794;9.820;2023-03-23T06:56:59;95656.16;;;18.86;46.65
40596;BME280;26304;48.794;9.820;2023-03-23T07:02:43;95659.53;;;18.86;46.50
40596;BME280;26304;48.794;9.820;2023-03-23T07:08:25;95651.63;;;18.86;46.38
40596;BME280;26304;48.794;9.820;2023-03-23T07:14:09;95660.22;;;18.91;46.65
40596;BME280;26304;48.794;9.820;2023-03-23T07:19:52;95659.78;;;18.99;46.78
40596;BME280;26304;48.794;9.820;2023-03-23T07:25:35;95675.94;;;19.01;46.83
40596;BME280;26304;48.794;9.820;2023-03-23T07:31:19;95683.09;;;19.01;47.18
40596;BME280;26304;48.794;9.820;2023-03-23T07:37:01;95686.88;;;19.00;47.00
40596;BME280;26304;48.794;9.820;2023-03-23T07:42:45;95692.88;;;19.04;46.98
40596;BME280;26304;48.794;9.820;2023-03-23T07:48:31;95704.91;;;19.01;46.69
40596;BME280;26304;48.794;9.820;2023-03-23T07:54:14;95712.50;;;18.96;46.52
40596;BME280;26304;48.794;9.820;2023-03-23T07:59:57;95722.31;;;18.92;46.95
40596;BME280;26304;48.794;9.820;2023-03-23T08:05:42;95720.03;;;18.94;47.14
40596;BME280;26304;48.794;9.820;2023-03-23T08:11:24;95723.34;;;19.01;46.65
40596;BME280;26304;48.794;9.820;2023-03-23T08:17:06;95717.66;;;19.10;47.11
40596;BME280;26304;48.794;9.820;2023-03-23T08:22:53;95724.09;;;19.05;46.99
40596;BME280;26304;48.794;9.820;2023-03-23T08:28:37;95720.75;;;18.98;46.63
40596;BME280;26304;48.794;9.820;2023-03-23T08:34:19;95736.22;;;18.92;46.60
40596;BME280;26304;48.794;9.820;2023-03-23T08:40:05;95749.03;;;18.90;46.95
40596;BME280;26304;48.794;9.820;2023-03-23T08:45:50;95757.66;;;18.91;47.03
40596;BME280;26304;48.794;9.820;2023-03-23T08:51:33;95766.31;;;18.95;47.01
40596;BME280;26304;48.794;9.820;2023-03-23T08:57:18;95768.84;;;19.09;46.81
40596;BME280;26304;48.794;9.820;2023-03-23T09:03:00;95762.84;;;19.05;46.63
40596;BME280;26304;48.794;9.820;2023-03-23T09:08:43;95762.06;;;19.08;46.83
40596;BME280;26304;48.794;9.820;2023-03-23T09:14:27;95769.22;;;19.08;46.51
40596;BME280;26304;48.794;9.820;2023-03-23T09:20:11;95779.38;;;19.09;46.96
40596;BME280;26304;48.794;9.820;2023-03-23T09:25:54;95792.94;;;19.08;46.59
40596;BME280;26304;48.794;9.820;2023-03-23T09:31:38;95795.19;;;19.09;46.78
40596;BME280;26304;48.794;9.820;2023-03-23T09:37:21;95805.72;;;19.09;46.25
40596;BME280;26304;48.794;9.820;2023-03-23T09:43:16;95804.19;;;19.15;46.13
40596;BME280;26304;48.794;9.820;2023-03-23T09:49:08;95809.84;;;19.14;46.31
40596;BME280;26304;48.794;9.820;2023-03-23T09:54:53;95807.94;;;19.14;46.50
40596;BME280;26304;48.794;9.820;2023-03-23T10:00:40;95823.00;;;19.14;46.33
40596;BME280;26304;48.794;9.820;2023-03-23T10:06:24;95817.00;;;19.13;46.17
40596;BME280;26304;48.794;9.820;2023-03-23T10:12:14;95819.25;;;19.11;46.51
40596;BME280;26304;48.794;9.820;2023-03-23T10:18:00;95822.28;;;19.10;46.50
40596;BME280;26304;48.794;9.820;2023-03-23T10:23:52;95825.28;;;19.08;46.23
40596;BME280;26304;48.794;9.820;2023-03-23T10:29:39;95826.81;;;19.09;46.54
40596;BME280;26304;48.794;9.820;2023-03-23T10:35:27;95828.31;;;19.10;46.48
40596;BME280;26304;48.794;9.820;2023-03-23T10:41:15;95831.31;;;19.09;46.49
40596;BME280;26304;48.794;9.820;2023-03-23T10:46:59;95830.56;;;19.08;46.69
40596;BME280;26304;48.794;9.820;2023-03-23T10:52:44;95838.09;;;19.06;46.73
40596;BME280;26304;48.794;9.820;2023-03-23T10:58:30;95837.69;;;19.11;46.92
40596;BME280;26304;48.794;9.820;2023-03-23T11:04:14;95838.16;;;18.99;47.71
40596;BME280;26304;48.794;9.820;2023-03-23T11:10:03;95831.06;;;18.88;48.17
40596;BME280;26304;48.794;9.820;2023-03-23T11:15:50;95835.53;;;18.99;47.50
40596;BME280;26304;48.794;9.820;2023-03-23T11:21:33;95841.16;;;19.01;47.28
40596;BME280;26304;48.794;9.820;2023-03-23T11:27:15;95840.03;;;19.02;47.18
40596;BME280;26304;48.794;9.820;2023-03-23T11:33:01;95840.03;;;19.02;46.94
40596;BME280;26304;48.794;9.820;2023-03-23T11:38:44;95833.56;;;19.06;47.10
40596;BME280;26304;48.794;9.820;2023-03-23T11:44:33;95834.34;;;19.07;47.09
40596;BME280;26304;48.794;9.820;2023-03-23T11:50:20;95832.00;;;19.20;46.93
40596;BME280;26304;48.794;9.820;2023-03-23T11:56:11;95839.47;;;19.29;47.20
40596;BME280;26304;48.794;9.820;2023-03-23T12:01:57;95830.00;;;19.35;47.41
40596;BME280;26304;48.794;9.820;2023-03-23T12:07:52;95825.53;;;19.28;47.97
40596;BME280;26304;48.794;9.820;2023-03-23T12:13:51;95811.91;;;18.77;49.28
40596;BME280;26304;48.794;9.820;2023-03-23T12:19:41;95809.56;;;18.94;49.84
40596;BME280;26304;48.794;9.820;2023-03-23T12:25:43;95808.09;;;18.93;49.03
40596;BME280;26304;48.794;9.820;2023-03-23T12:31:35;95799.78;;;18.98;49.31
40596;BME280;26304;48.794;9.820;2023-03-23T12:37:33;95793.53;;;18.70;49.36
40596;BME280;26304;48.794;9.820;2023-03-23T12:43:27;95787.28;;;19.09;48.91
40596;BME280;26304;48.794;9.820;2023-03-23T12:49:16;95793.22;;;19.20;48.76
40596;BME280;26304;48.794;9.820;2023-03-23T12:55:03;95788.25;;;19.30;48.93
40596;BME280;26304;48.794;9.820;2023-03-23T13:00:54;95789.06;;;19.23;49.28
40596;BME280;26304;48.794;9.820;2023-03-23T13:06:40;95784.84;;;19.33;49.64
40596;BME280;26304;48.794;9.820;2023-03-23T13:12:25;95781.84;;;19.34;49.38
40596;BME280;26304;48.794;9.820;2023-03-23T13:18:15;95785.59;;;19.33;49.46
40596;BME280;26304;48.794;9.820;2023-03-23T13:24:01;95778.38;;;19.41;49.54
40596;BME280;26304;48.794;9.820;2023-03-23T13:29:45;95772.69;;;19.50;48.96
40596;BME280;26304;48.794;9.820;2023-03-23T13:35:35;95757.25;;;19.48;49.17
40596;BME280;26304;48.794;9.820;2023-03-23T13:41:20;95748.53;;;19.51;49.01
40596;BME280;26304;48.794;9.820;2023-03-23T13:47:08;95744.47;;;19.43;48.67
40596;BME280;26304;48.794;9.820;2023-03-23T13:53:00;95740.97;;;19.57;47.98
40596;BME280;26304;48.794;9.820;2023-03-23T13:58:47;95736.03;;;19.63;47.68
40596;BME280;26304;48.794;9.820;2023-03-23T14:04:31;95738.31;;;19.57;47.93
40596;BME280;26304;48.794;9.820;2023-03-23T14:10:16;95735.47;;;19.37;48.04
40596;BME280;26304;48.794;9.820;2023-03-23T14:16:02;95728.66;;;19.43;47.93
40596;BME280;26304;48.794;9.820;2023-03-23T14:21:50;95719.53;;;19.55;47.56
40596;BME280;26304;48.794;9.820;2023-03-23T14:27:34;95720.94;;;19.63;47.35
40596;BME280;26304;48.794;9.820;2023-03-23T14:33:19;95719.94;;;19.50;47.86
40596;BME280;26304;48.794;9.820;2023-03-23T14:39:05;95724.03;;;19.54;48.11
40596;BME280;26304;48.794;9.820;2023-03-23T14:44:50;95729.34;;;19.51;47.95
40596;BME280;26304;48.794;9.820;2023-03-23T14:50:37;95712.63;;;19.65;47.30
40596;BME280;26304;48.794;9.820;2023-03-23T14:56:22;95704.44;;;19.55;47.37
40596;BME280;26304;48.794;9.820;2023-03-23T15:02:16;95700.03;;;19.45;46.86
40596;BME280;26304;48.794;9.820;2023-03-23T15:08:01;95703.06;;;19.40;46.27
40596;BME280;26304;48.794;9.820;2023-03-23T15:13:45;95701.69;;;19.28;46.58
40596;BME280;26304;48.794;9.820;2023-03-23T15:19:34;95707.69;;;19.29;46.47
40596;BME280;26304;48.794;9.820;2023-03-23T15:25:20;95719.41;;;19.28;47.01
40596;BME280;26304;48.794;9.820;2023-03-23T15:31:04;95725.78;;;19.27;47.14
40596;BME280;26304;48.794;9.820;2023-03-23T15:36:58;95719.91;;;19.12;46.76
40596;BME280;26304;48.794;9.820;2023-03-23T15:42:41;95725.88;;;19.19;46.02
40596;BME280;26304;48.794;9.820;2023-03-23T15:48:24;95717.47;;;19.32;46.11
40596;BME280;26304;48.794;9.820;2023-03-23T15:54:12;95719.66;;;19.37;46.38
40596;BME280;26304;48.794;9.820;2023-03-23T15:59:55;95715.94;;;19.34;46.53
40596;BME280;26304;48.794;9.820;2023-03-23T16:05:38;95715.91;;;19.38;46.19
40596;BME280;26304;48.794;9.820;2023-03-23T16:11:23;95722.25;;;19.44;46.31
40596;BME280;26304;48.794;9.820;2023-03-23T16:17:09;95724.25;;;19.33;46.72
40596;BME280;26304;48.794;9.820;2023-03-23T16:22:53;95722.53;;;19.53;46.51
40596;BME280;26304;48.794;9.820;2023-03-23T16:28:37;95726.28;;;19.56;45.71
40596;BME280;26304;48.794;9.820;2023-03-23T16:34:20;95731.19;;;19.54;46.63
40596;BME280;26304;48.794;9.820;2023-03-23T16:40:03;95737.19;;;19.58;45.31
40596;BME280;26304;48.794;9.820;2023-03-23T16:45:47;95727.72;;;19.64;45.38
40596;BME280;26304;48.794;9.820;2023-03-23T16:51:29;95725.88;;;19.61;45.87
40596;BME280;26304;48.794;9.820;2023-03-23T16:57:12;95733.03;;;19.57;46.31
40596;BME280;26304;48.794;9.820;2023-03-23T17:02:56;95730.06;;;19.51;45.93
40596;BME280;26304;48.794;9.820;2023-03-23T17:08:38;95740.28;;;19.49;45.85
40596;BME280;26304;48.794;9.820;2023-03-23T17:14:21;95742.91;;;19.49;46.17
40596;BME280;26304;48.794;9.820;2023-03-23T17:20:06;95741.44;;;19.48;45.95
40596;BME280;26304;48.794;9.820;2023-03-23T17:25:49;95738.06;;;19.44;45.90
40596;BME280;26304;48.794;9.820;2023-03-23T17:31:32;95732.41;;;19.46;45.48
40596;BME280;26304;48.794;9.820;2023-03-23T17:37:16;95717.72;;;19.48;45.87
40596;BME280;26304;48.794;9.820;2023-03-23T17:42:58;95711.31;;;19.46;45.91
40596;BME280;26304;48.794;9.820;2023-03-23T17:48:40;95711.28;;;19.49;45.86
40596;BME280;26304;48.794;9.820;2023-03-23T17:54:25;95714.69;;;19.46;46.20
40596;BME280;26304;48.794;9.820;2023-03-23T18:00:10;95713.91;;;19.49;45.80
40596;BME280;26304;48.794;9.820;2023-03-23T18:05:57;95718.09;;;19.47;45.54
40596;BME280;26304;48.794;9.820;2023-03-23T18:11:41;95715.06;;;19.48;45.75
40596;BME280;26304;48.794;9.820;2023-03-23T18:17:23;95703.81;;;19.44;45.47
40596;BME280;26304;48.794;9.820;2023-03-23T18:23:06;95711.34;;;19.42;45.24
40596;BME280;26304;48.794;9.820;2023-03-23T18:28:50;95721.53;;;19.40;45.30
40596;BME280;26304;48.794;9.820;2023-03-23T18:34:33;95726.41;;;19.41;44.81
40596;BME280;26304;48.794;9.820;2023-03-23T18:40:16;95718.41;;;19.52;45.16
40596;BME280;26304;48.794;9.820;2023-03-23T18:46:01;95721.91;;;19.42;45.00
40596;BME280;26304;48.794;9.820;2023-03-23T18:51:44;95719.72;;;19.33;45.16
40596;BME280;26304;48.794;9.820;2023-03-23T18:57:27;95714.38;;;19.40;45.00
40596;BME280;26304;48.794;9.820;2023-03-23T19:03:11;95721.78;;;19.53;44.96
40596;BME280;26304;48.794;9.820;2023-03-23T19:08:54;95720.97;;;19.59;45.88
40596;BME280;26304;48.794;9.820;2023-03-23T19:14:38;95720.19;;;19.63;45.00
40596;BME280;26304;48.794;9.820;2023-03-23T19:20:23;95722.44;;;19.64;45.23
40596;BME280;26304;48.794;9.820;2023-03-23T19:26:05;95719.41;;;19.66;45.51
40596;BME280;26304;48.794;9.820;2023-03-23T19:31:48;95732.16;;;19.71;45.70
40596;BME280;26304;48.794;9.820;2023-03-23T19:37:32;95723.66;;;19.94;45.69
40596;BME280;26304;48.794;9.820;2023-03-23T19:43:14;95718.31;;;20.01;45.41
40596;BME280;26304;48.794;9.820;2023-03-23T19:48:57;95720.72;;;19.88;45.65
40596;BME280;26304;48.794;9.820;2023-03-23T19:54:43;95729.84;;;19.76;47.36
40596;BME280;26304;48.794;9.820;2023-03-23T20:00:26;95725.25;;;19.84;46.71
40596;BME280;26304;48.794;9.820;2023-03-23T20:06:10;95728.25;;;19.86;46.56
40596;BME280;26304;48.794;9.820;2023-03-23T20:11:56;95729.41;;;19.85;45.65
40596;BME280;26304;48.794;9.820;2023-03-23T20:17:38;95732.09;;;19.82;46.16
40596;BME280;26304;48.794;9.820;2023-03-23T20:23:21;95725.66;;;19.83;45.74
40596;BME280;26304;48.794;9.820;2023-03-23T20:29:05;95726.41;;;19.83;45.85
40596;BME280;26304;48.794;9.820;2023-03-23T20:34:47;95725.22;;;19.88;45.84
40596;BME280;26304;48.794;9.820;2023-03-23T20:40:30;95733.66;;;19.72;45.82
40596;BME280;26304;48.794;9.820;2023-03-23T20:46:14;95731.72;;;19.38;46.14
40596;BME280;26304;48.794;9.820;2023-03-23T20:51:56;95731.41;;;19.29;46.60
40596;BME280;26304;48.794;9.820;2023-03-23T20:57:39;95720.56;;;19.23;47.34
40596;BME280;26304;48.794;9.820;2023-03-23T21:03:23;95716.03;;;19.23;48.02
40596;BME280;26304;48.794;9.820;2023-03-23T21:09:06;95714.00;;;19.42;48.22
40596;BME280;26304;48.794;9.820;2023-03-23T21:14:49;95714.47;;;19.30;48.26
40596;BME280;26304;48.794;9.820;2023-03-23T21:20:34;95703.19;;;19.29;48.57
40596;BME280;26304;48.794;9.820;2023-03-23T21:26:18;95702.81;;;19.27;49.02
40596;BME280;26304;48.794;9.820;2023-03-23T21:32:00;95678.75;;;19.25;49.05
40596;BME280;26304;48.794;9.820;2023-03-23T21:37:45;95667.50;;;19.21;49.50
40596;BME280;26304;48.794;9.820;2023-03-23T21:43:28;95666.34;;;19.22;49.30
40596;BME280;26304;48.794;9.820;2023-03-23T21:49:11;95662.97;;;19.21;49.23
40596;BME280;26304;48.794;9.820;2023-03-23T21:54:56;95659.19;;;19.22;48.97
40596;BME280;26304;48.794;9.820;2023-03-23T22:00:39;95643.44;;;19.19;49.15
40596;BME280;26304;48.794;9.820;2023-03-23T22:06:23;95631.41;;;19.18;49.44
40596;BME280;26304;48.794;9.820;2023-03-23T22:12:08;95621.25;;;19.16;49.33
40596;BME280;26304;48.794;9.820;2023-03-23T22:17:50;95617.50;;;19.14;49.40
40596;BME280;26304;48.794;9.820;2023-03-23T22:23:33;95605.84;;;19.15;49.36
40596;BME280;26304;48.794;9.820;2023-03-23T22:29:18;95596.81;;;19.12;49.41
40596;BME280;26304;48.794;9.820;2023-03-23T22:35:01;95583.31;;;19.10;49.43
40596;BME280;26304;48.794;9.820;2023-03-23T22:40:53;95576.88;;;19.11;49.65
40596;BME280;26304;48.794;9.820;2023-03-23T22:46:37;95566.72;;;19.10;49.30
40596;BME280;26304;48.794;9.820;2023-03-23T22:52:19;95558.47;;;19.08;49.35
40596;BME280;26304;48.794;9.820;2023-03-23T22:58:02;95538.91;;;19.09;49.61
40596;BME280;26304;48.794;9.820;2023-03-23T23:03:46;95532.53;;;19.06;49.41
40596;BME280;26304;48.794;9.820;2023-03-23T23:09:29;95527.25;;;19.06;49.67
40596;BME280;26304;48.794;9.820;2023-03-23T23:15:12;95512.59;;;19.05;49.62
40596;BME280;26304;48.794;9.820;2023-03-23T23:20:58;95514.88;;;19.03;49.35
40596;BME280;26304;48.794;9.820;2023-03-23T23:26:40;95522.03;;;19.02;49.35
40596;BME280;26304;48.794;9.820;2023-03-23T23:32:24;95517.56;;;18.99;49.74
40596;BME280;26304;48.794;9.820;2023-03-23T23:38:09;95514.53;;;19.01;49.09
40596;BME280;26304;48.794;9.820;2023-03-23T23:43:52;95510.78;;;18.98;49.82
40596;BME280;26304;48.794;9.820;2023-03-23T23:49:35;95504.78;;;18.98;49.55
40596;BME280;26304;48.794;9.820;2023-03-23T23:55:20;95522.09;;;18.99;49.72
